Time;durP1;ratioP1;P1;durP2;ratioP2;P2;SDS_P1;SDS_P2;PMS_P1;PMS_P2;Temp;Humidity;BMP_temperature;BMP_pressure;BME280_temperature;BME280_humidity;BME280_pressure;Samples;Min_cycle;Max_cycle;Signal;HPM_P1;HPM_P2
2023/01/25 00:07:54;;;;;;;14.30;9.43;;;;;;;21.01;53.78;101873.31;20933203;28;20072;-82
2023/01/25 00:17:55;;;;;;;14.10;9.43;;;;;;;20.98;53.52;101883.97;20922816;28;20041;-83
2023/01/25 00:27:55;;;;;;;15.27;9.48;;;;;;;20.94;54.17;101883.28;20920019;28;20044;-82
2023/01/25 00:38:00;;;;;;;14.75;9.38;;;;;;;20.91;53.96;101876.41;20926518;28;20499;-82
2023/01/25 00:48:00;;;;;;;12.00;8.82;;;;;;;20.94;53.72;101875.38;20942335;28;20040;-83
2023/01/25 00:58:02;;;;;;;14.38;8.48;;;;;;;20.89;53.84;101880.06;20927508;28;20051;-82
2023/01/25 01:08:02;;;;;;;12.18;8.63;;;;;;;20.86;53.56;101890.72;20922123;28;20515;-83
2023/01/25 01:18:03;;;;;;;12.75;9.05;;;;;;;20.85;53.81;101891.66;20917019;28;20060;-84
2023/01/25 01:28:04;;;;;;;14.10;8.55;;;;;;;20.84;53.56;101890.81;20940532;28;20090;-84
2023/01/25 01:38:04;;;;;;;11.25;7.85;;;;;;;20.84;53.70;101895.25;20927862;28;20391;-83
2023/01/25 01:48:10;;;;;;;12.75;8.35;;;;;;;20.82;53.73;101887.41;20932920;28;20067;-83
2023/01/25 01:58:11;;;;;;;12.52;8.57;;;;;;;20.80;53.75;101881.41;20913850;28;20043;-81
2023/01/25 02:08:14;;;;;;;13.90;8.98;;;;;;;20.75;53.57;101872.88;20925989;28;20049;-85
2023/01/25 02:18:16;;;;;;;11.95;8.50;;;;;;;20.74;53.52;101873.81;20913968;28;20044;-84
2023/01/25 02:28:26;;;;;;;12.57;8.30;;;;;;;20.71;53.79;101871.31;20941248;28;20041;-82
2023/01/25 02:38:31;;;;;;;11.48;8.05;;;;;;;20.70;53.48;101854.66;20954036;28;20163;-84
2023/01/25 02:48:31;;;;;;;11.48;7.68;;;;;;;20.70;53.66;101845.91;20935971;28;20045;-83
2023/01/25 02:58:32;;;;;;;12.25;7.47;;;;;;;20.64;53.61;101840.03;20936499;28;20499;-82
2023/01/25 03:08:33;;;;;;;13.85;9.00;;;;;;;20.65;53.20;101846.13;20931406;28;20049;-82
2023/01/25 03:18:35;;;;;;;11.95;7.90;;;;;;;20.61;53.22;101834.91;20945326;28;20040;-82
2023/01/25 03:28:37;;;;;;;13.07;8.23;;;;;;;20.61;53.31;101826.19;20928345;28;20045;-82
2023/01/25 03:38:37;;;;;;;12.95;8.55;;;;;;;20.59;53.34;101835.94;20931429;28;20787;-80
2023/01/25 03:48:38;;;;;;;12.90;8.65;;;;;;;20.56;53.42;101836.94;20932604;28;20040;-83
2023/01/25 03:58:38;;;;;;;12.25;8.30;;;;;;;20.55;53.25;101829.13;20931963;28;20538;-83
2023/01/25 04:08:39;;;;;;;11.93;8.23;;;;;;;20.52;53.13;101824.88;20924735;28;20049;-82
2023/01/25 04:18:39;;;;;;;11.80;7.95;;;;;;;20.52;53.57;101835.41;20946743;28;20298;-83
2023/01/25 04:28:40;;;;;;;11.73;8.07;;;;;;;20.50;53.18;101836.44;20933961;28;20450;-82
2023/01/25 04:38:41;;;;;;;11.55;8.13;;;;;;;20.47;53.05;101838.28;20938959;28;20523;-83
2023/01/25 04:48:41;;;;;;;10.82;7.70;;;;;;;20.46;52.66;101839.19;20922707;28;20052;-84
2023/01/25 04:58:42;;;;;;;10.45;7.45;;;;;;;20.47;53.33;101834.81;20928441;28;20489;-84
2023/01/25 05:08:42;;;;;;;9.85;7.38;;;;;;;20.53;53.07;101841.50;20917890;28;20131;-83
2023/01/25 05:18:43;;;;;;;11.77;8.18;;;;;;;20.57;54.19;101843.91;20915372;28;20041;-80
2023/01/25 05:28:43;;;;;;;17.60;8.35;;;;;;;20.63;54.83;101848.03;20922470;28;20118;-78
2023/01/25 05:38:44;;;;;;;13.55;7.72;;;;;;;20.70;54.04;101845.91;20916468;28;20060;-80
2023/01/25 05:48:46;;;;;;;18.85;9.40;;;;;;;20.73;54.33;101845.78;20919366;28;20138;-79
2023/01/25 05:58:51;;;;;;;18.80;9.07;;;;;;;20.78;53.21;101836.69;20934478;28;20054;-85
2023/01/25 06:08:55;;;;;;;17.30;8.20;;;;;;;20.86;53.94;101846.84;20911902;28;20282;-79
2023/01/25 06:18:55;;;;;;;22.42;9.40;;;;;;;20.92;52.26;101857.06;20938996;28;20463;-80
2023/01/25 06:28:56;;;;;;;25.38;9.07;;;;;;;20.94;52.18;101870.97;20925601;28;20036;-80
2023/01/25 06:38:56;;;;;;;14.88;8.25;;;;;;;21.00;52.31;101874.22;20932872;28;20123;-77
2023/01/25 06:48:57;;;;;;;17.88;7.45;;;;;;;21.08;52.81;101874.66;20896510;28;21203;-77
2023/01/25 06:58:57;;;;;;;13.90;8.35;;;;;;;21.12;52.76;101868.31;20928054;28;20059;-79
2023/01/25 07:09:11;;;;;;;15.35;8.15;;;;;;;21.20;52.74;101874.00;20922398;28;20048;-78
2023/01/25 07:19:13;;;;;;;15.27;8.70;;;;;;;21.26;52.13;101873.69;20918382;28;20059;-77
2023/01/25 07:29:17;;;;;;;12.77;8.77;;;;;;;21.34;52.22;101877.69;20921388;28;20045;-78
2023/01/25 07:39:17;;;;;;;16.25;9.30;;;;;;;21.39;52.16;101870.38;20929001;28;20290;-81
2023/01/25 07:49:18;;;;;;;15.02;9.32;;;;;;;21.43;51.79;101870.13;20961325;28;20052;-79
2023/01/25 07:59:18;;;;;;;15.18;9.07;;;;;;;21.48;51.83;101876.91;20953882;28;20041;-79
2023/01/25 08:09:19;;;;;;;14.98;8.68;;;;;;;21.52;51.70;101870.53;20960522;28;20048;-80
2023/01/25 08:19:21;;;;;;;14.50;9.52;;;;;;;21.56;51.32;101870.31;20956887;28;20040;-79
2023/01/25 08:29:22;;;;;;;14.50;8.33;;;;;;;21.58;51.02;101854.41;20923291;28;20083;-80
2023/01/25 08:39:22;;;;;;;12.73;8.52;;;;;;;21.63;51.11;101855.03;20930212;28;20056;-76
2023/01/25 08:49:23;;;;;;;12.70;8.70;;;;;;;21.65;51.09;101858.41;20915746;28;20040;-77
2023/01/25 08:59:25;;;;;;;17.43;9.20;;;;;;;21.66;50.61;101849.56;20901675;28;20492;-77
2023/01/25 09:09:25;;;;;;;12.18;8.35;;;;;;;21.67;50.95;101845.16;20907521;28;20830;-77
2023/01/25 09:19:26;;;;;;;22.95;9.82;;;;;;;21.63;49.68;101846.25;20896374;28;20029;-77
2023/01/25 09:29:26;;;;;;;12.35;8.13;;;;;;;21.59;49.88;101829.75;20923375;28;20048;-77
2023/01/25 09:39:26;;;;;;;12.40;7.88;;;;;;;21.57;49.92;101848.28;20903614;28;20044;-76
2023/01/25 09:49:58;;;;;;;11.85;7.65;;;;;;;21.54;49.81;101824.69;20901244;28;20071;-76
2023/01/25 10:00:04;;;;;;;9.70;6.73;;;;;;;21.51;49.99;101814.34;20903132;28;20056;-75
2023/01/25 10:10:20;;;;;;;8.77;6.75;;;;;;;21.47;50.05;101793.50;20908917;28;20041;-76
2023/01/25 10:20:57;;;;;;;10.15;6.68;;;;;;;21.42;50.03;101775.31;20907483;28;20098;-76
2023/01/25 10:31:06;;;;;;;12.57;6.70;;;;;;;21.39;49.96;101763.19;20878782;28;20044;-76
2023/01/25 10:41:21;;;;;;;8.65;6.43;;;;;;;21.38;49.78;101750.09;20889490;28;20044;-77
2023/01/25 10:51:30;;;;;;;8.90;5.97;;;;;;;21.39;49.72;101741.25;20916917;28;20507;-76
2023/01/25 11:01:34;;;;;;;11.05;6.30;;;;;;;21.37;49.59;101738.72;20919398;28;20606;-76
2023/01/25 11:11:37;;;;;;;8.18;5.50;;;;;;;21.36;49.29;101715.06;20911973;28;20047;-76
2023/01/25 11:21:50;;;;;;;7.13;5.30;;;;;;;21.34;49.47;101709.91;20922302;28;20451;-77
2023/01/25 11:31:54;;;;;;;7.63;5.40;;;;;;;21.35;49.32;101687.88;20916700;28;20044;-76
2023/01/25 11:42:43;;;;;;;8.80;5.50;;;;;;;21.33;49.19;101655.50;20916448;28;20062;-76
2023/01/25 11:53:02;;;;;;;6.57;5.10;;;;;;;21.34;48.89;101624.75;20860401;28;20056;-76
2023/01/25 12:03:21;;;;;;;7.10;5.03;;;;;;;21.34;49.10;101614.22;20915758;28;20052;-75
2023/01/25 12:13:33;;;;;;;7.70;5.10;;;;;;;21.32;49.10;101598.47;20882548;28;20415;-77
2023/01/25 12:24:10;;;;;;;6.13;4.68;;;;;;;21.30;48.58;101595.09;20869732;28;20051;-75
2023/01/25 12:34:31;;;;;;;6.97;4.97;;;;;;;21.28;48.72;101583.78;20900868;28;20462;-75
2023/01/25 12:44:53;;;;;;;6.13;4.45;;;;;;;21.27;48.85;101571.56;20908783;28;20513;-74
2023/01/25 12:54:59;;;;;;;9.82;4.95;;;;;;;21.25;48.24;101562.88;20905037;28;20072;-74
2023/01/25 13:05:16;;;;;;;8.38;4.70;;;;;;;21.24;48.28;101548.03;20893528;28;20037;-74
2023/01/25 13:15:40;;;;;;;7.13;4.95;;;;;;;21.24;48.06;101545.41;20896994;28;22029;-74
2023/01/25 13:25:41;;;;;;;9.15;4.32;;;;;;;21.23;47.83;101531.38;20907046;28;20114;-75
2023/01/25 13:35:43;;;;;;;6.15;4.07;;;;;;;21.24;48.24;101533.06;20894625;28;20036;-75
2023/01/25 13:45:48;;;;;;;8.00;4.57;;;;;;;21.25;47.76;101526.00;20883617;28;21598;-76
2023/01/25 13:55:54;;;;;;;7.50;4.63;;;;;;;21.25;47.74;101518.97;20900403;28;20352;-79
2023/01/25 14:05:56;;;;;;;8.27;4.03;;;;;;;21.25;48.42;101510.19;20906211;28;20048;-80
2023/01/25 14:16:00;;;;;;;5.63;3.72;;;;;;;21.27;48.04;101501.25;20901682;28;20775;-80
2023/01/25 14:26:00;;;;;;;7.57;4.15;;;;;;;21.27;48.11;101505.69;20922433;28;20522;-80
2023/01/25 14:36:06;;;;;;;5.32;3.70;;;;;;;21.25;48.61;101503.16;20919514;28;20407;-81
2023/01/25 14:46:26;;;;;;;5.82;4.22;;;;;;;21.24;48.42;101496.19;20920785;28;20630;-80
2023/01/25 14:56:43;;;;;;;5.97;3.80;;;;;;;21.24;48.61;101498.84;20915223;28;20055;-81
2023/01/25 15:06:49;;;;;;;4.32;3.42;;;;;;;21.25;48.61;101491.75;20922811;28;20719;-78
2023/01/25 15:16:49;;;;;;;5.57;3.90;;;;;;;21.25;48.52;101494.41;20915663;28;20068;-80
2023/01/25 15:26:52;;;;;;;8.05;3.90;;;;;;;21.25;48.63;101489.13;20908778;28;20832;-80
2023/01/25 15:36:52;;;;;;;5.35;3.72;;;;;;;21.22;48.64;101479.63;20926385;28;20085;-81
2023/01/25 15:46:56;;;;;;;7.50;4.18;;;;;;;21.19;48.38;101484.22;20922990;28;20044;-83
2023/01/25 15:56:58;;;;;;;6.13;3.97;;;;;;;21.16;48.20;101485.25;20930970;28;20514;-79
2023/01/25 16:07:00;;;;;;;5.93;3.83;;;;;;;21.14;48.16;101470.50;20952744;28;20049;-80
2023/01/25 16:17:04;;;;;;;5.32;3.53;;;;;;;21.09;48.18;101471.63;20933402;28;20533;-80
2023/01/25 16:27:04;;;;;;;6.07;3.90;;;;;;;21.06;48.40;101461.28;20957803;28;20037;-81
2023/01/25 16:37:06;;;;;;;7.38;4.07;;;;;;;21.02;48.27;101462.41;20950125;28;20444;-78
2023/01/25 16:47:13;;;;;;;7.60;4.32;;;;;;;20.99;47.76;101467.84;20945909;28;20049;-79
2023/01/25 16:57:13;;;;;;;11.40;4.57;;;;;;;20.91;48.44;101455.13;20916596;28;20040;-82
2023/01/25 17:07:15;;;;;;;228.88;207.60;;;;;;;21.00;nan;101452.91;20901200;28;20040;-80
2023/01/25 17:17:16;;;;;;;31.80;25.77;;;;;;;20.98;nan;101450.34;20881974;28;20040;-74
2023/01/25 17:27:17;;;;;;;86.03;78.65;;;;;;;21.01;nan;101442.28;20848965;28;20044;-76
2023/01/25 17:37:18;;;;;;;15.65;13.98;;;;;;;21.04;nan;101428.06;20863121;28;20048;-76
2023/01/25 17:47:19;;;;;;;27.58;16.05;;;;;;;21.02;nan;101420.28;20857542;28;20135;-77
2023/01/25 17:57:22;;;;;;;18.02;10.57;;;;;;;21.03;nan;101419.34;20849740;28;20055;-75
2023/01/25 18:07:24;;;;;;;15.80;5.28;;;;;;;21.03;nan;101403.53;20830418;28;20052;-76
2023/01/25 18:17:26;;;;;;;11.23;5.00;;;;;;;21.05;nan;101406.06;20851370;28;20467;-77
2023/01/25 18:27:28;;;;;;;25.15;9.05;;;;;;;21.06;nan;101403.34;20819851;28;20121;-78
2023/01/25 18:37:34;;;;;;;24.27;8.57;;;;;;;21.13;nan;101389.78;20835397;28;20409;-77
2023/01/25 18:47:35;;;;;;;38.03;9.77;;;;;;;21.13;nan;101366.94;20831650;28;21708;-76
2023/01/25 18:57:36;;;;;;;31.23;10.18;;;;;;;21.15;nan;101343.16;20828813;28;20075;-78
2023/01/25 19:07:38;;;;;;;31.33;9.32;;;;;;;21.14;nan;101354.63;20823321;28;20041;-76
2023/01/25 19:17:39;;;;;;;25.07;9.10;;;;;;;21.14;nan;101338.81;20875131;28;20052;-76
2023/01/25 19:27:40;;;;;;;21.90;8.75;;;;;;;21.14;nan;101331.78;20855536;28;20087;-76
2023/01/25 19:37:42;;;;;;;16.67;7.18;;;;;;;21.13;nan;101316.91;20813817;28;20047;-77
2023/01/25 19:47:43;;;;;;;22.03;7.40;;;;;;;21.13;nan;101310.78;20894341;28;20094;-75
2023/01/25 19:57:45;;;;;;;16.23;7.32;;;;;;;21.10;nan;101307.41;20823498;28;20048;-75
2023/01/25 20:07:47;;;;;;;16.05;7.10;;;;;;;21.06;nan;101302.44;20867702;28;20050;-77
2023/01/25 20:17:49;;;;;;;15.43;6.90;;;;;;;21.05;nan;101283.13;20816931;28;20064;-79
2023/01/25 20:27:51;;;;;;;17.63;7.97;;;;;;;20.99;nan;101280.06;20817237;28;20071;-75
2023/01/25 20:37:52;;;;;;;14.97;9.10;;;;;;;20.99;nan;101275.63;20814177;28;20328;-76
2023/01/25 20:47:53;;;;;;;15.75;7.78;;;;;;;20.97;nan;101267.00;20837489;28;20126;-76
2023/01/25 20:57:54;;;;;;;13.43;7.13;;;;;;;20.95;nan;101243.38;20881965;28;20051;-76
2023/01/25 21:07:55;;;;;;;17.10;7.20;;;;;;;20.95;nan;101229.38;20903857;28;20097;-76
2023/01/25 21:17:56;;;;;;;13.10;6.75;;;;;;;20.94;nan;101227.69;20911753;28;20585;-76
2023/01/25 21:27:57;;;;;;;14.55;6.63;;;;;;;20.95;nan;101226.75;20904145;28;20411;-75
2023/01/25 21:37:58;;;;;;;12.35;6.82;;;;;;;20.92;nan;101221.66;20903464;28;20134;-75
2023/01/25 21:47:59;;;;;;;11.55;5.60;;;;;;;20.91;nan;101220.81;20900789;28;20418;-75
2023/01/25 21:58:00;;;;;;;13.15;6.28;;;;;;;20.88;nan;101199.94;20889475;28;20037;-76
2023/01/25 22:08:00;;;;;;;14.55;6.80;;;;;;;20.89;nan;101200.81;20823539;28;20140;-76
2023/01/25 22:18:01;;;;;;;11.90;6.35;;;;;;;20.88;nan;101186.78;20815962;28;20150;-76
2023/01/25 22:28:03;;;;;;;10.45;5.60;;;;;;;20.88;nan;101184.16;20818610;28;20511;-75
2023/01/25 22:38:03;;;;;;;10.35;6.00;;;;;;;20.86;nan;101172.03;20809770;28;20071;-76
2023/01/25 22:48:04;;;;;;;10.00;5.72;;;;;;;20.83;nan;101170.44;20832745;28;20036;-75
2023/01/25 22:58:04;;;;;;;11.00;5.83;;;;;;;20.81;nan;101153.91;20845618;28;20091;-76
2023/01/25 23:08:05;;;;;;;10.55;5.57;;;;;;;20.81;nan;101140.72;20845956;28;20289;-74
2023/01/25 23:28:24;;;;;;;8.93;5.28;;;;;;;20.78;nan;101136.50;20833550;28;20048;-75
2023/01/25 23:38:24;;;;;;;9.40;5.70;;;;;;;20.77;nan;101123.47;20831495;28;20131;-75
2023/01/25 23:48:25;;;;;;;10.25;6.05;;;;;;;20.75;nan;101099.88;20845751;28;20044;-75
2023/01/25 23:58:27;;;;;;;9.65;5.70;;;;;;;20.73;nan;101085.97;20840043;28;20048;-75
